ADDS TAF Board (Experimental) INFO Settings
IDs: Format: Expanded Condensed

KMSP - Minneapolis-St Paul, MN, US

Issued at 2049 UTC 01 May 2016
Updated at: 2115 UTC 01 May 2016
Time2053Z 01/22Z 01/23Z 02/00Z 02/01Z 02/02Z 02/03Z 02/04Z 02/05Z 02/06Z 02/07Z 02/08Z 02/09Z 02/10Z
Type OBS PRVL PRVL PRVL PRVL PRVL PRVL PRVL PRVL PRVL PRVL PRVL PRVL PRVL
VIS 10 >6 >6 >6 >6 >6 >6 >6 >6 >6 >6 >6 >6 >6
CIG 60 60 60 60 -- -- -- -- -- -- -- -- -- --
Cover BKN BKN BKN BKN SKC SKC SKC SKC SKC SKC SKC SKC SKC SKC
FltCat VFR VFR VFR VFR VFR VFR VFR VFR VFR VFR VFR VFR VFR VFR
WX -- -- -- -- -- -- -- -- -- -- -- -- -- --
WDir 50 30 30 30 30 30 30 30 30 30 30 30 30 30
WSpd 9 10 10 10 5 5 5 5 5 5 5 5 5 5
WGst -- -- -- -- -- -- -- -- -- -- -- -- -- --
R04/22
XWnd -1 3 3 3 1 1 1 1 1 1 1 1 1 1
HWnd 9 10 10 10 5 5 5 5 5 5 5 5 5 5
R12/30
XWnd 9 10 10 10 5 5 5 5 5 5 5 5 5 5
HWnd 3 -0 -0 -0 -0 -0 -0 -0 -0 -0 -0 -0 -0 -0
R17/35
XWnd 8 6 6 6 3 3 3 3 3 3 3 3 3 3
HWnd -5 -8 -8 -8 -4 -4 -4 -4 -4 -4 -4 -4 -4 -4

NOTE: TEMPO conditions in [brackets]. Keep in mind TEMPO conditions might be better (lower impact) than prevailing conditions.

Raw TAF
KMSP 012049Z 0121/0224 03010KT P6SM BKN060 BKN250
  FM020100 03005KT P6SM SKC


Raw METAR
KMSP 012053Z 05009KT 10SM BKN060 16/01 A3010 RMK AO2 SLP196 T01560011 56011
KMSP 011953Z 04007G16KT 010V090 10SM BKN060 BKN250 16/02 A3011 RMK AO2 SLP199 T01560017
KMSP 011853Z 02010G16KT 10SM SCT049 BKN250 15/02 A3012 RMK AO2 SLP201 T01500022

METAR Board
Radar Display
Forecast Discussion

TAF Board Legend

Potential Impact
Threat None Slight Moderate High
Visibility (sm) ≥5.1 5.1>X≥3 3>X≥1 <1
Ceiling (100 ft) ≥30.1 30.1>X≥10 10>X≥5 <5
Wind Speed (kt) <10 10≤X<20 20≤X<30 ≥30
Wind Gust (kt) <15 15≤X<25 25≤X<35 ≥35
Weather No Wx Reported VCTS,-TS,-FZRA,SN TS,FZRA +TS,+FZRA,+SN